Time;durP1;ratioP1;P1;durP2;ratioP2;P2;SDS_P1;SDS_P2;PMS_P1;PMS_P2;Temp;Humidity;BMP_temperature;BMP_pressure;BME280_temperature;BME280_humidity;BME280_pressure;Samples;Min_cycle;Max_cycle;Signal;HPM_P1;HPM_P2
2021/04/04 00:02:15;;;;;;;6.15;3.50;;;;;;;4.36;50.31;99676.47;3612111;39;20427;-67
2021/04/04 00:04:42;;;;;;;6.38;3.60;;;;;;;4.49;50.64;99676.25;3621976;39;20030;-67
2021/04/04 00:07:09;;;;;;;7.90;3.60;;;;;;;4.58;50.22;99674.63;3621758;39;20043;-66
2021/04/04 00:09:36;;;;;;;8.15;3.42;;;;;;;4.64;50.06;99676.72;3621902;39;20027;-65
2021/04/04 00:12:05;;;;;;;6.07;3.17;;;;;;;4.59;50.24;99671.88;3612554;39;20047;-66
2021/04/04 00:14:31;;;;;;;6.57;3.58;;;;;;;4.56;50.20;99669.50;3621359;39;20047;-66
2021/04/04 00:16:58;;;;;;;7.65;3.50;;;;;;;4.52;50.41;99668.13;3620831;39;20055;-67
2021/04/04 00:19:25;;;;;;;11.43;4.20;;;;;;;4.51;50.46;99668.25;3620780;39;20054;-67
2021/04/04 00:21:51;;;;;;;6.15;3.22;;;;;;;4.35;50.70;99668.75;3611743;39;20040;-66
2021/04/04 00:24:18;;;;;;;8.15;3.42;;;;;;;4.12;51.22;99663.72;3622539;39;20047;-65
2021/04/04 00:26:45;;;;;;;6.38;3.42;;;;;;;4.09;51.19;99666.56;3615165;39;20054;-67
2021/04/04 00:29:13;;;;;;;6.22;3.10;;;;;;;4.04;51.39;99660.06;3624343;39;20047;-66
2021/04/04 00:31:39;;;;;;;5.63;3.13;;;;;;;3.96;51.45;99660.72;3625057;39;20042;-67
2021/04/04 00:34:07;;;;;;;6.25;3.28;;;;;;;4.00;51.35;99649.03;3624779;39;20034;-66
2021/04/04 00:36:35;;;;;;;5.22;2.92;;;;;;;4.06;51.46;99658.16;3624863;39;20051;-67
2021/04/04 00:39:06;;;;;;;5.95;3.30;;;;;;;4.04;51.63;99649.59;3625502;39;20350;-66
2021/04/04 00:41:34;;;;;;;4.03;2.83;;;;;;;3.99;51.67;99652.59;3624430;39;20383;-66
2021/04/04 00:44:01;;;;;;;5.35;3.22;;;;;;;3.93;52.04;99655.75;3615576;39;20035;-66
2021/04/04 00:46:29;;;;;;;8.75;3.45;;;;;;;3.92;52.03;99652.31;3625408;39;20047;-67
2021/04/04 00:48:56;;;;;;;7.88;3.30;;;;;;;3.96;52.05;99648.47;3612089;39;20067;-69
2021/04/04 00:51:23;;;;;;;6.07;3.50;;;;;;;3.95;51.82;99644.19;3620774;39;20058;-67
2021/04/04 00:53:51;;;;;;;5.88;3.22;;;;;;;3.86;51.94;99641.53;3611669;39;20387;-67
2021/04/04 00:56:18;;;;;;;6.40;3.08;;;;;;;3.72;52.09;99638.28;3620614;39;20131;-66
2021/04/04 00:58:47;;;;;;;5.80;3.00;;;;;;;3.63;52.29;99640.81;3620245;39;20075;-64
2021/04/04 01:01:14;;;;;;;4.47;3.13;;;;;;;3.63;52.29;99635.59;3619852;39;20046;-66
2021/04/04 01:03:41;;;;;;;7.78;3.47;;;;;;;3.62;52.48;99633.94;3620175;39;20038;-67
2021/04/04 01:06:09;;;;;;;6.15;3.58;;;;;;;3.59;52.25;99632.44;3610715;39;20086;-68
2021/04/04 01:08:38;;;;;;;10.02;4.65;;;;;;;3.59;52.34;99631.56;3620173;39;20420;-68
2021/04/04 01:11:06;;;;;;;10.23;5.78;;;;;;;3.62;52.31;99639.16;3620267;39;20119;-66
2021/04/04 01:13:40;;;;;;;8.95;4.78;;;;;;;3.60;52.16;99639.31;3620806;39;20461;-67
2021/04/04 01:16:12;;;;;;;7.25;4.07;;;;;;;3.58;52.00;99633.38;3620824;39;20050;-67
2021/04/04 01:18:42;;;;;;;11.23;3.63;;;;;;;3.46;52.23;99632.59;3620881;39;20075;-68
2021/04/04 01:21:13;;;;;;;10.70;3.97;;;;;;;3.41;52.46;99636.56;3621694;39;20079;-67
2021/04/04 01:24:23;;;;;;;7.43;3.45;;;;;;;3.36;52.28;99639.53;3621567;39;20050;-67
2021/04/04 01:26:56;;;;;;;6.00;3.00;;;;;;;3.31;52.74;99641.72;3614365;39;20035;-68
2021/04/04 01:29:26;;;;;;;5.90;3.25;;;;;;;3.33;52.92;99641.56;3625871;39;20401;-69
2021/04/04 01:31:54;;;;;;;6.10;3.22;;;;;;;3.40;52.90;99634.91;3621896;39;20063;-68
2021/04/04 01:34:23;;;;;;;7.32;3.25;;;;;;;3.36;52.48;99634.31;3625948;39;20429;-67
2021/04/04 01:36:53;;;;;;;7.03;3.53;;;;;;;3.28;52.81;99636.72;3619899;39;20062;-66
2021/04/04 01:39:23;;;;;;;5.70;2.88;;;;;;;3.25;53.05;99639.59;3620019;39;20318;-67
2021/04/04 01:41:51;;;;;;;4.80;2.65;;;;;;;3.19;53.07;99638.31;3620066;39;20044;-67
2021/04/04 01:44:20;;;;;;;5.05;3.30;;;;;;;3.12;53.24;99631.91;3620163;39;20077;-67
2021/04/04 01:46:50;;;;;;;7.97;3.13;;;;;;;3.08;53.27;99624.47;3620057;39;20074;-67
2021/04/04 01:49:18;;;;;;;6.55;3.20;;;;;;;3.00;53.63;99627.69;3619727;39;20054;-67
2021/04/04 01:51:46;;;;;;;7.60;3.25;;;;;;;2.97;53.97;99633.16;3610453;39;20055;-67
2021/04/04 01:54:16;;;;;;;7.43;3.13;;;;;;;2.90;54.03;99630.22;3619945;39;20111;-66
2021/04/04 01:56:43;;;;;;;8.43;3.75;;;;;;;2.82;54.34;99623.97;3619720;39;20043;-64
2021/04/04 01:59:12;;;;;;;5.85;3.78;;;;;;;2.81;54.42;99630.94;3620044;39;20055;-67
2021/04/04 02:01:43;;;;;;;6.45;3.55;;;;;;;2.79;54.28;99622.41;3619723;39;20288;-66
2021/04/04 02:04:11;;;;;;;5.32;3.35;;;;;;;2.76;54.44;99627.06;3619988;39;20091;-65
2021/04/04 02:06:39;;;;;;;6.90;3.38;;;;;;;2.76;54.63;99624.44;3619802;39;20051;-66
2021/04/04 02:09:08;;;;;;;7.18;3.50;;;;;;;2.82;54.74;99626.59;3619595;39;20047;-67
2021/04/04 02:11:37;;;;;;;6.78;3.50;;;;;;;2.94;54.62;99630.81;3619837;39;20432;-66
2021/04/04 02:14:07;;;;;;;5.88;2.88;;;;;;;2.96;54.63;99624.50;3619831;39;20410;-66
2021/04/04 02:16:36;;;;;;;4.28;3.33;;;;;;;2.91;54.65;99624.03;3619669;39;20054;-67
2021/04/04 02:19:03;;;;;;;7.60;3.38;;;;;;;3.00;54.66;99621.66;3619642;39;20039;-67
2021/04/04 02:21:32;;;;;;;7.47;3.47;;;;;;;2.86;54.51;99618.38;3619706;39;20307;-67
2021/04/04 02:24:02;;;;;;;6.57;3.38;;;;;;;2.80;54.48;99625.84;3619587;39;20034;-66
2021/04/04 02:26:30;;;;;;;7.80;4.60;;;;;;;2.73;54.66;99621.13;3619741;39;20054;-67
2021/04/04 02:28:57;;;;;;;4.75;3.17;;;;;;;2.64;55.11;99615.81;3619736;39;20039;-66
2021/04/04 02:31:25;;;;;;;10.65;3.80;;;;;;;2.56;55.25;99615.59;3619602;39;20430;-67
2021/04/04 02:33:57;;;;;;;8.43;4.05;;;;;;;2.52;55.46;99617.59;3619691;39;20402;-67
2021/04/04 02:36:27;;;;;;;6.53;3.10;;;;;;;2.53;55.36;99627.13;3619725;39;20051;-66
2021/04/04 02:39:03;;;;;;;8.93;3.17;;;;;;;2.40;55.99;99626.41;3619521;39;20046;-65
2021/04/04 02:41:31;;;;;;;7.53;3.42;;;;;;;2.36;55.91;99630.19;3621249;39;20054;-67
2021/04/04 02:44:00;;;;;;;6.60;3.45;;;;;;;2.33;56.04;99623.47;3611670;39;20031;-67
2021/04/04 02:46:28;;;;;;;6.25;3.10;;;;;;;2.41;55.86;99628.09;3621026;39;20043;-67
2021/04/04 02:48:58;;;;;;;6.68;3.08;;;;;;;2.45;55.81;99622.50;3620985;39;20046;-67
2021/04/04 02:51:30;;;;;;;6.50;2.85;;;;;;;2.54;55.59;99625.34;3619783;39;20043;-67
2021/04/04 02:54:00;;;;;;;6.95;3.10;;;;;;;2.63;55.29;99621.97;3619646;39;20111;-67
2021/04/04 02:56:29;;;;;;;11.95;3.03;;;;;;;2.61;55.27;99621.25;3619416;39;20043;-67
2021/04/04 02:58:58;;;;;;;4.10;3.10;;;;;;;2.70;55.22;99624.00;3619630;39;20047;-67
2021/04/04 03:01:29;;;;;;;6.15;3.05;;;;;;;2.70;54.79;99620.56;3619479;39;20043;-67
2021/04/04 03:03:56;;;;;;;6.07;2.75;;;;;;;2.71;54.84;99630.88;3619643;39;20123;-67
2021/04/04 03:06:24;;;;;;;8.60;3.25;;;;;;;2.71;55.00;99630.88;3609896;39;20075;-67
2021/04/04 03:08:52;;;;;;;5.10;3.00;;;;;;;2.78;54.95;99627.78;3610039;39;20043;-67
2021/04/04 03:11:21;;;;;;;6.10;3.38;;;;;;;2.83;54.74;99625.63;3619411;39;20047;-67
2021/04/04 03:13:51;;;;;;;5.38;3.20;;;;;;;2.78;54.08;99633.00;3609893;39;20023;-67
2021/04/04 03:16:19;;;;;;;5.88;3.15;;;;;;;2.66;54.74;99632.19;3619272;39;20394;-67
2021/04/04 03:18:47;;;;;;;5.07;2.65;;;;;;;2.52;54.86;99625.44;3619352;39;20047;-67
2021/04/04 03:21:16;;;;;;;8.25;3.20;;;;;;;2.30;55.65;99633.31;3619587;39;20073;-67
2021/04/04 03:23:44;;;;;;;6.93;2.80;;;;;;;2.21;55.89;99627.03;3619711;39;20421;-66
2021/04/04 03:26:12;;;;;;;4.55;3.25;;;;;;;2.25;55.63;99635.44;3619426;39;20043;-67
2021/04/04 03:28:42;;;;;;;7.03;3.50;;;;;;;2.16;55.79;99630.00;3619196;39;20059;-66
2021/04/04 03:31:14;;;;;;;8.80;3.33;;;;;;;2.19;55.82;99626.28;3619305;39;20039;-67
2021/04/04 03:33:42;;;;;;;6.60;2.50;;;;;;;2.21;55.94;99621.81;3619090;39;20054;-67
2021/04/04 03:36:13;;;;;;;9.13;3.58;;;;;;;2.19;55.93;99624.50;3619123;39;20054;-67
2021/04/04 03:38:42;;;;;;;6.88;2.65;;;;;;;2.26;55.88;99627.50;3619238;39;20097;-67
2021/04/04 03:41:10;;;;;;;7.55;3.38;;;;;;;2.27;55.83;99626.53;3619240;39;20039;-68
2021/04/04 03:43:38;;;;;;;6.45;3.30;;;;;;;2.23;55.97;99622.50;3609561;39;20039;-67
2021/04/04 03:46:09;;;;;;;11.07;3.38;;;;;;;2.20;56.03;99631.41;3619551;39;20086;-67
2021/04/04 03:48:37;;;;;;;8.38;2.80;;;;;;;2.19;55.91;99628.91;3619268;39;20047;-67
2021/04/04 03:51:09;;;;;;;4.78;3.70;;;;;;;2.19;55.71;99629.72;3618902;39;20043;-66
2021/04/04 03:53:40;;;;;;;7.57;3.13;;;;;;;2.10;55.60;99634.84;3619645;39;20053;-68
2021/04/04 03:56:08;;;;;;;5.97;2.97;;;;;;;1.92;55.88;99645.75;3619667;39;20039;-67
2021/04/04 03:58:38;;;;;;;7.22;3.45;;;;;;;1.80;56.47;99643.25;3620473;39;20326;-67
2021/04/04 04:01:07;;;;;;;4.65;3.42;;;;;;;1.76;56.67;99641.81;3611571;39;20383;-67
2021/04/04 04:03:36;;;;;;;4.07;2.90;;;;;;;1.83;56.88;99638.59;3620919;39;20047;-66
2021/04/04 04:06:03;;;;;;;5.60;3.17;;;;;;;1.90;56.68;99641.56;3621052;39;20050;-67
2021/04/04 04:08:31;;;;;;;6.53;3.55;;;;;;;1.94;56.57;99637.78;3621281;39;20051;-66
2021/04/04 04:10:59;;;;;;;7.60;3.30;;;;;;;1.93;56.31;99636.13;3611769;39;20071;-66
2021/04/04 04:13:28;;;;;;;6.78;2.97;;;;;;;1.94;56.39;99636.00;3621110;39;20058;-67
2021/04/04 04:15:56;;;;;;;9.02;3.58;;;;;;;1.95;56.41;99637.66;3620112;39;20071;-67
2021/04/04 04:18:24;;;;;;;7.60;4.20;;;;;;;1.96;56.57;99630.69;3620427;39;20073;-66
2021/04/04 04:20:51;;;;;;;6.50;3.25;;;;;;;2.00;56.74;99624.28;3619656;39;20047;-67
2021/04/04 04:23:19;;;;;;;6.30;3.15;;;;;;;2.07;56.48;99635.06;3619418;39;20054;-67
2021/04/04 04:25:47;;;;;;;6.93;3.10;;;;;;;2.13;56.37;99632.81;3619368;39;20054;-67
2021/04/04 04:28:17;;;;;;;5.53;3.05;;;;;;;2.14;55.74;99625.84;3610359;39;20055;-67
2021/04/04 04:30:44;;;;;;;6.57;3.88;;;;;;;2.03;55.95;99625.81;3619561;39;20049;-67
2021/04/04 04:33:15;;;;;;;4.95;3.30;;;;;;;1.96;56.35;99630.69;3619447;39;20090;-68
2021/04/04 04:35:44;;;;;;;8.15;4.07;;;;;;;1.92;56.50;99624.88;3619043;39;20366;-67
2021/04/04 04:38:12;;;;;;;8.38;3.28;;;;;;;1.92;56.49;99616.22;3618849;39;20039;-67
2021/04/04 04:40:40;;;;;;;6.47;3.45;;;;;;;1.93;56.69;99623.94;3619298;39;20051;-69
2021/04/04 04:43:11;;;;;;;5.35;3.17;;;;;;;1.97;56.82;99617.53;3619319;39;20051;-67
2021/04/04 04:45:40;;;;;;;10.05;3.33;;;;;;;1.97;56.57;99621.91;3619034;39;20330;-67
2021/04/04 04:48:08;;;;;;;6.97;3.25;;;;;;;1.91;56.52;99623.19;3619073;39;20079;-68
2021/04/04 04:50:36;;;;;;;7.57;3.67;;;;;;;1.87;56.75;99631.38;3609684;39;20120;-65
2021/04/04 04:53:05;;;;;;;7.78;4.07;;;;;;;1.77;56.82;99627.81;3619405;39;20039;-65
2021/04/04 04:55:33;;;;;;;8.45;3.63;;;;;;;1.64;57.00;99633.97;3609854;39;20035;-66
2021/04/04 04:58:00;;;;;;;5.53;3.85;;;;;;;1.56;57.07;99633.72;3619282;39;20120;-67
2021/04/04 05:00:28;;;;;;;6.15;3.58;;;;;;;1.62;57.49;99635.00;3620046;39;20062;-67
2021/04/04 05:02:55;;;;;;;6.35;4.07;;;;;;;1.63;57.09;99634.91;3621089;39;20051;-67
2021/04/04 05:05:22;;;;;;;6.97;4.13;;;;;;;1.54;57.37;99635.59;3621227;39;20047;-67
2021/04/04 05:07:50;;;;;;;11.82;4.20;;;;;;;1.58;57.37;99633.56;3621692;39;20087;-68
2021/04/04 05:10:18;;;;;;;8.57;3.50;;;;;;;1.56;57.40;99638.91;3611914;39;20075;-67
2021/04/04 05:12:47;;;;;;;8.48;4.25;;;;;;;1.54;57.39;99638.19;3622341;39;20403;-67
2021/04/04 05:15:16;;;;;;;18.50;10.00;;;;;;;1.56;58.11;99643.31;3626868;39;20458;-67
2021/04/04 05:17:44;;;;;;;9.23;4.13;;;;;;;1.58;57.61;99641.41;3617880;39;20043;-67
2021/04/04 05:20:12;;;;;;;9.35;4.10;;;;;;;1.59;57.83;99648.25;3621466;39;20045;-66
2021/04/04 05:22:39;;;;;;;6.20;3.88;;;;;;;1.65;57.55;99634.78;3620856;39;20062;-67
2021/04/04 05:25:07;;;;;;;7.88;3.88;;;;;;;1.66;57.27;99636.44;3620642;39;20043;-67
2021/04/04 05:27:36;;;;;;;8.30;3.80;;;;;;;1.63;57.48;99640.13;3620874;39;20080;-67
2021/04/04 05:30:05;;;;;;;9.02;3.85;;;;;;;1.73;57.37;99635.03;3620711;39;20051;-67
2021/04/04 05:32:32;;;;;;;9.48;4.18;;;;;;;1.72;57.16;99644.63;3610790;39;20379;-67
2021/04/04 05:34:59;;;;;;;11.85;4.38;;;;;;;1.71;57.31;99636.91;3620770;39;20074;-67
2021/04/04 05:37:26;;;;;;;7.72;4.25;;;;;;;1.71;57.71;99634.31;3620505;39;20047;-67
2021/04/04 05:39:53;;;;;;;6.88;3.83;;;;;;;1.79;57.41;99638.94;3620516;39;20051;-66
2021/04/04 05:42:25;;;;;;;7.45;3.75;;;;;;;1.86;57.14;99640.97;3620414;39;20028;-67
2021/04/04 05:44:57;;;;;;;7.43;4.10;;;;;;;1.85;57.38;99643.72;3610628;39;20095;-67
2021/04/04 05:47:32;;;;;;;8.75;3.38;;;;;;;1.92;57.04;99637.91;3620361;39;20059;-67
2021/04/04 05:50:03;;;;;;;7.70;3.97;;;;;;;1.93;57.25;99636.13;3620426;39;20054;-66
2021/04/04 05:52:40;;;;;;;5.47;3.75;;;;;;;2.07;56.80;99630.69;3621805;39;20047;-67
2021/04/04 05:55:24;;;;;;;9.32;4.60;;;;;;;2.04;56.67;99640.50;3622055;39;20127;-67
2021/04/04 05:57:56;;;;;;;6.90;3.88;;;;;;;1.97;56.70;99638.38;3620887;39;20054;-65
2021/04/04 06:00:26;;;;;;;12.23;6.57;;;;;;;2.02;56.94;99637.22;3621608;39;20397;-67
2021/04/04 06:03:19;;;;;;;8.93;4.47;;;;;;;1.97;56.70;99632.34;3611246;39;20043;-66
2021/04/04 06:06:33;;;;;;;9.27;3.85;;;;;;;2.03;56.79;99639.69;3611192;39;20047;-67
2021/04/04 06:09:19;;;;;;;7.43;4.18;;;;;;;2.04;56.75;99640.50;3568066;40;20056;-68
2021/04/04 06:12:04;;;;;;;7.35;4.07;;;;;;;2.12;56.95;99641.59;3568069;40;20045;-67
2021/04/04 06:14:42;;;;;;;7.32;4.03;;;;;;;2.25;56.67;99635.44;3609601;39;20059;-66
2021/04/04 06:17:19;;;;;;;8.07;4.50;;;;;;;2.25;56.60;99638.88;3621307;39;20054;-67
2021/04/04 06:19:53;;;;;;;8.77;4.20;;;;;;;2.33;56.82;99644.34;3620893;39;20076;-66
2021/04/04 06:22:27;;;;;;;10.35;4.25;;;;;;;2.50;56.86;99637.78;3620163;39;20670;-67
2021/04/04 06:25:01;;;;;;;8.48;4.10;;;;;;;2.65;56.39;99641.81;3611288;39;20054;-67
2021/04/04 06:27:38;;;;;;;8.45;4.35;;;;;;;2.77;56.12;99642.59;3611932;39;20046;-67
2021/04/04 06:30:46;;;;;;;16.55;10.40;;;;;;;2.84;56.07;99642.94;3619963;39;20086;-68
2021/04/04 06:33:17;;;;;;;13.20;5.07;;;;;;;3.05;55.64;99646.44;3619872;39;20050;-68
2021/04/04 06:35:53;;;;;;;8.93;4.45;;;;;;;3.23;55.80;99646.75;3619814;39;20043;-67
2021/04/04 06:38:51;;;;;;;7.38;4.50;;;;;;;3.46;55.36;99643.03;3619702;39;20051;-68
2021/04/04 06:41:34;;;;;;;8.73;5.03;;;;;;;3.61;54.75;99642.75;3619782;39;20043;-67
2021/04/04 06:44:14;;;;;;;7.85;4.50;;;;;;;3.60;54.16;99636.69;3620039;39;20059;-67
2021/04/04 06:46:51;;;;;;;11.02;5.18;;;;;;;3.52;54.50;99639.13;3620172;39;20055;-67
2021/04/04 06:49:34;;;;;;;9.07;4.68;;;;;;;3.54;54.62;99642.41;3610555;39;20079;-68
2021/04/04 06:52:16;;;;;;;11.02;5.25;;;;;;;3.65;54.79;99644.16;3612096;39;20123;-68
2021/04/04 06:54:58;;;;;;;9.18;4.78;;;;;;;3.87;54.33;99645.78;3613932;39;20039;-70
2021/04/04 06:57:39;;;;;;;8.85;4.38;;;;;;;3.93;54.28;99646.09;3624077;39;20066;-69
2021/04/04 07:00:10;;;;;;;13.98;5.93;;;;;;;4.11;54.16;99640.25;3624221;39;20051;-67
2021/04/04 07:02:47;;;;;;;13.73;5.43;;;;;;;4.20;53.98;99644.72;3622837;39;20043;-67
2021/04/04 07:05:19;;;;;;;12.65;5.97;;;;;;;4.24;53.72;99640.88;3623994;39;20073;-69
2021/04/04 07:08:22;;;;;;;13.00;6.00;;;;;;;4.30;53.86;99634.28;3623972;39;20066;-67
2021/04/04 07:11:03;;;;;;;12.50;6.82;;;;;;;4.51;54.38;99642.09;3621240;39;20422;-67
2021/04/04 07:13:54;;;;;;;14.90;7.28;;;;;;;4.71;54.70;99634.13;3613934;39;20039;-68
2021/04/04 07:16:54;;;;;;;16.70;8.25;;;;;;;4.84;54.93;99643.53;3621567;39;20406;-66
2021/04/04 07:19:45;;;;;;;15.95;7.57;;;;;;;5.04;55.11;99634.72;3615777;39;20054;-67
2021/04/04 07:22:37;;;;;;;15.40;8.45;;;;;;;5.06;55.46;99635.44;3619748;39;20075;-70
2021/04/04 07:25:15;;;;;;;18.63;7.75;;;;;;;5.04;55.76;99628.66;3609832;39;20053;-66
2021/04/04 07:28:29;;;;;;;16.83;7.85;;;;;;;5.13;55.68;99633.09;3618679;39;20080;-68
2021/04/04 07:30:59;;;;;;;18.33;8.97;;;;;;;5.18;55.86;99628.25;3567134;40;20048;-68
2021/04/04 07:33:52;;;;;;;20.08;8.82;;;;;;;5.30;55.74;99635.00;3567342;40;20056;-67
2021/04/04 07:36:38;;;;;;;16.45;8.38;;;;;;;5.43;55.70;99632.94;3558836;40;20021;-68
2021/04/04 07:39:13;;;;;;;16.60;8.60;;;;;;;5.59;55.55;99635.00;3567168;40;20103;-67
2021/04/04 07:41:51;;;;;;;19.60;10.55;;;;;;;5.64;55.37;99629.34;3581839;39;20360;-66
2021/04/04 07:44:24;;;;;;;18.35;8.88;;;;;;;5.74;55.31;99630.13;3610014;39;20058;-71
2021/04/04 07:47:01;;;;;;;23.35;9.63;;;;;;;5.84;55.06;99624.88;3619625;39;20083;-67
2021/04/04 07:49:37;;;;;;;16.02;8.80;;;;;;;5.92;55.09;99620.59;3609651;39;20054;-68
2021/04/04 07:52:13;;;;;;;19.08;9.32;;;;;;;6.07;54.90;99623.56;3619763;39;20388;-66
2021/04/04 07:54:52;;;;;;;31.48;9.95;;;;;;;6.22;54.75;99618.69;3619620;39;20314;-67
2021/04/04 07:57:28;;;;;;;20.70;9.32;;;;;;;6.32;54.41;99614.22;3619850;39;20453;-68
2021/04/04 08:00:02;;;;;;;15.95;8.70;;;;;;;6.44;54.39;99615.69;3621095;39;20074;-68
2021/04/04 08:02:41;;;;;;;19.30;10.05;;;;;;;6.58;54.07;99608.28;3621229;39;20053;-67
2021/04/04 08:05:19;;;;;;;16.35;9.50;;;;;;;6.73;53.89;99612.06;3620433;39;20043;-69
2021/04/04 08:07:51;;;;;;;20.80;9.95;;;;;;;6.92;53.72;99605.84;3621188;39;20112;-68
2021/04/04 08:10:26;;;;;;;19.10;9.60;;;;;;;7.04;53.42;99604.66;3620762;39;20054;-67
2021/04/04 08:13:10;;;;;;;16.80;8.45;;;;;;;7.17;53.09;99612.16;3620200;39;20058;-67
2021/04/04 08:15:49;;;;;;;22.88;10.20;;;;;;;7.26;52.87;99611.25;3619995;39;20314;-67
2021/04/04 08:18:20;;;;;;;17.08;8.75;;;;;;;7.35;52.71;99606.91;3620018;39;20394;-67
2021/04/04 08:20:49;;;;;;;24.55;11.68;;;;;;;7.45;52.59;99607.63;3619913;39;20387;-67
2021/04/04 08:23:22;;;;;;;21.25;9.68;;;;;;;7.52;52.01;99602.59;3620023;39;20394;-67
2021/04/04 08:25:54;;;;;;;17.85;9.07;;;;;;;7.53;51.98;99610.31;3610542;39;20054;-67
2021/04/04 08:28:26;;;;;;;23.05;9.18;;;;;;;7.54;52.23;99605.88;3620394;39;20050;-67
2021/04/04 08:31:01;;;;;;;22.52;9.93;;;;;;;7.66;51.98;99600.22;3610652;39;20417;-67
2021/04/04 08:33:36;;;;;;;17.90;8.63;;;;;;;7.69;51.86;99602.53;3611147;39;20050;-68
2021/04/04 08:36:07;;;;;;;15.50;8.77;;;;;;;7.80;51.89;99598.00;3620102;39;20047;-67
2021/04/04 08:38:39;;;;;;;16.70;8.27;;;;;;;7.76;51.84;99592.22;3621561;39;20058;-68
2021/04/04 08:41:11;;;;;;;16.83;8.38;;;;;;;7.86;51.64;99595.56;3611969;39;20038;-67
2021/04/04 08:43:40;;;;;;;19.15;9.00;;;;;;;8.06;51.56;99585.63;3621186;39;20051;-67
2021/04/04 08:46:15;;;;;;;20.77;8.48;;;;;;;8.24;51.14;99590.00;3621228;39;20050;-67
2021/04/04 08:48:44;;;;;;;17.85;9.52;;;;;;;8.36;50.90;99589.53;3621140;39;20047;-67
2021/04/04 08:51:14;;;;;;;18.38;10.25;;;;;;;8.53;50.55;99582.56;3621024;39;20413;-67
2021/04/04 08:53:46;;;;;;;17.75;10.20;;;;;;;8.64;49.60;99584.06;3621292;39;20042;-68
2021/04/04 08:56:15;;;;;;;16.17;9.13;;;;;;;8.58;49.51;99587.38;3621833;39;20086;-66
2021/04/04 08:58:48;;;;;;;22.60;10.27;;;;;;;8.53;49.14;99577.31;3621746;39;20047;-67
2021/04/04 09:01:20;;;;;;;19.98;10.68;;;;;;;8.63;49.28;99577.16;3621208;39;20054;-67
2021/04/04 09:03:50;;;;;;;19.85;10.07;;;;;;;8.71;49.25;99577.19;3622243;39;20103;-67
2021/04/04 09:06:19;;;;;;;17.83;9.73;;;;;;;8.85;49.02;99573.06;3622356;39;20120;-67
2021/04/04 09:08:46;;;;;;;24.85;14.35;;;;;;;8.83;48.61;99577.69;3622245;39;20047;-67
2021/04/04 09:11:14;;;;;;;28.88;17.23;;;;;;;8.85;48.98;99576.53;3621212;39;20039;-67
2021/04/04 09:13:41;;;;;;;20.67;10.18;;;;;;;8.91;48.96;99572.44;3622464;39;20127;-67
2021/04/04 09:16:13;;;;;;;21.20;10.77;;;;;;;9.05;49.17;99577.03;3621428;39;20488;-68
2021/04/04 09:18:45;;;;;;;49.00;26.55;;;;;;;9.28;48.90;99571.13;3622006;39;20147;-66
2021/04/04 09:21:13;;;;;;;45.08;25.60;;;;;;;9.47;48.12;99569.94;3613482;39;20108;-67
2021/04/04 09:23:42;;;;;;;25.23;11.20;;;;;;;9.49;47.27;99557.44;3621570;39;20050;-66
2021/04/04 09:26:11;;;;;;;18.70;11.40;;;;;;;9.43;47.49;99561.56;3620824;39;20039;-67
2021/04/04 09:28:41;;;;;;;21.13;10.50;;;;;;;9.48;47.88;99563.69;3611284;39;20047;-67
2021/04/04 09:31:18;;;;;;;21.90;10.75;;;;;;;9.62;47.79;99557.72;3620955;39;20043;-67
2021/04/04 09:33:51;;;;;;;19.98;9.32;;;;;;;9.69;47.17;99553.44;3621207;39;20051;-66
2021/04/04 09:36:19;;;;;;;18.87;9.03;;;;;;;9.88;47.20;99550.41;3620849;39;20082;-67
2021/04/04 09:38:47;;;;;;;19.02;10.00;;;;;;;10.06;46.68;99549.38;3620700;39;20403;-66
2021/04/04 09:41:14;;;;;;;17.17;9.00;;;;;;;10.08;46.23;99547.34;3620485;39;20032;-67
2021/04/04 09:43:53;;;;;;;18.83;10.43;;;;;;;10.27;46.28;99546.16;3611050;39;20047;-65
2021/04/04 09:46:20;;;;;;;177.93;110.13;;;;;;;10.45;45.21;99543.25;3620503;39;20395;-67
2021/04/04 09:48:47;;;;;;;32.30;19.98;;;;;;;10.47;45.12;99544.75;3620165;39;20039;-67
2021/04/04 09:51:16;;;;;;;151.18;79.68;;;;;;;10.52;45.07;99533.63;3621021;39;20053;-64
2021/04/04 09:53:45;;;;;;;443.35;237.57;;;;;;;10.71;45.05;99535.03;3621146;39;20498;-64
2021/04/04 09:56:13;;;;;;;743.13;414.33;;;;;;;10.83;44.27;99529.16;3621831;39;20039;-66
2021/04/04 09:58:42;;;;;;;470.63;231.73;;;;;;;10.89;44.54;99517.03;3620771;39;20051;-64
2021/04/04 10:01:18;;;;;;;894.25;500.25;;;;;;;10.98;43.94;99517.78;3620639;39;20051;-65
2021/04/04 10:03:59;;;;;;;358.50;165.88;;;;;;;11.13;44.14;99516.00;3620413;39;20092;-64
2021/04/04 10:06:26;;;;;;;77.28;34.85;;;;;;;11.25;43.46;99519.06;3620628;39;20027;-65
2021/04/04 10:08:54;;;;;;;41.72;23.15;;;;;;;11.46;42.74;99516.53;3620695;39;20075;-62
2021/04/04 10:11:22;;;;;;;329.90;155.07;;;;;;;11.63;41.97;99511.88;3620311;39;20035;-64
2021/04/04 10:13:50;;;;;;;27.88;14.73;;;;;;;11.58;41.28;99506.31;3610912;39;20043;-65
2021/04/04 10:16:19;;;;;;;322.60;176.32;;;;;;;11.52;41.16;99510.53;3620169;39;20043;-64
2021/04/04 10:19:02;;;;;;;296.95;140.75;;;;;;;11.39;41.26;99507.69;3620157;39;20051;-64
2021/04/04 10:21:29;;;;;;;206.32;100.35;;;;;;;11.47;41.16;99514.69;3618974;39;20387;-62
2021/04/04 10:23:56;;;;;;;318.08;146.30;;;;;;;11.61;41.27;99503.31;3620286;39;20067;-62
2021/04/04 10:26:23;;;;;;;263.13;123.38;;;;;;;11.57;41.10;99499.38;3620432;39;20101;-63
2021/04/04 10:28:54;;;;;;;1214.80;670.63;;;;;;;11.55;41.17;99493.44;3620250;39;20058;-65
2021/04/04 10:31:24;;;;;;;609.15;329.27;;;;;;;11.70;41.00;99498.75;3620177;39;20046;-62
2021/04/04 10:33:59;;;;;;;45.92;26.52;;;;;;;11.76;39.93;99495.38;3619964;39;20039;-64
2021/04/04 10:36:27;;;;;;;44.80;18.85;;;;;;;11.93;39.45;99498.69;3620292;39;20053;-62
2021/04/04 10:38:55;;;;;;;37.42;17.67;;;;;;;11.82;38.47;99494.63;3619992;39;20407;-62
2021/04/04 10:41:27;;;;;;;62.38;28.92;;;;;;;11.88;39.29;99499.25;3610253;39;20380;-62
2021/04/04 10:43:55;;;;;;;387.23;171.45;;;;;;;12.00;38.27;99503.06;3611481;39;20050;-65
2021/04/04 10:46:27;;;;;;;47.28;21.48;;;;;;;11.98;38.23;99498.94;3619908;39;20055;-63
2021/04/04 10:48:54;;;;;;;297.52;137.63;;;;;;;12.27;38.48;99496.25;3618555;39;20054;-63
2021/04/04 10:51:21;;;;;;;23.48;11.07;;;;;;;12.52;36.99;99493.25;3619900;39;20233;-63
2021/04/04 10:53:49;;;;;;;186.32;82.47;;;;;;;12.42;36.50;99487.44;3610396;39;20386;-63
2021/04/04 10:56:17;;;;;;;27.20;15.13;;;;;;;12.25;36.63;99487.66;3619709;39;20047;-64
2021/04/04 10:58:47;;;;;;;502.90;316.92;;;;;;;12.13;37.27;99484.66;3609904;39;20043;-63
2021/04/04 11:01:15;;;;;;;53.63;26.60;;;;;;;12.04;37.51;99477.84;3610224;39;20040;-63
2021/04/04 11:03:44;;;;;;;23.80;13.10;;;;;;;11.97;35.74;99481.41;3619754;39;20047;-62
2021/04/04 11:06:12;;;;;;;15.63;8.43;;;;;;;11.82;35.10;99479.56;3619784;39;20414;-65
2021/04/04 11:08:40;;;;;;;15.68;8.45;;;;;;;11.65;35.25;99481.56;3619692;39;20380;-63
2021/04/04 11:11:07;;;;;;;11.27;6.35;;;;;;;11.71;35.43;99480.00;3619613;39;20050;-63
2021/04/04 11:13:36;;;;;;;14.40;7.05;;;;;;;11.68;35.61;99476.94;3619898;39;20058;-62
2021/04/04 11:16:07;;;;;;;23.17;11.65;;;;;;;11.80;35.84;99467.53;3619527;39;20399;-63
2021/04/04 11:18:39;;;;;;;18.42;10.40;;;;;;;11.93;35.25;99459.75;3619782;39;20070;-63
2021/04/04 11:21:10;;;;;;;17.23;9.10;;;;;;;12.10;36.19;99461.19;3619306;39;20405;-63
2021/04/04 11:23:37;;;;;;;11.80;6.20;;;;;;;12.44;35.89;99453.59;3619656;39;20123;-63
2021/04/04 11:26:26;;;;;;;23.20;11.80;;;;;;;12.62;35.30;99449.50;3620393;39;20090;-64
2021/04/04 11:29:08;;;;;;;28.10;17.88;;;;;;;12.94;35.40;99443.81;3612522;39;20059;-63
2021/04/04 11:31:36;;;;;;;13.32;7.20;;;;;;;13.05;34.36;99448.63;3619564;39;20062;-63
2021/04/04 11:34:26;;;;;;;18.27;7.82;;;;;;;12.91;34.76;99446.88;3620435;39;20069;-63
2021/04/04 11:36:54;;;;;;;16.98;7.40;;;;;;;12.90;34.64;99440.75;3610856;39;20037;-63
2021/04/04 11:39:21;;;;;;;10.05;7.10;;;;;;;12.49;35.09;99436.13;3620658;39;20383;-63
2021/04/04 11:41:50;;;;;;;13.68;6.72;;;;;;;12.53;35.06;99433.88;3619761;39;20043;-65
2021/04/04 11:44:29;;;;;;;10.35;6.20;;;;;;;12.38;35.42;99434.78;3619721;39;20365;-62
2021/04/04 11:46:57;;;;;;;14.90;7.55;;;;;;;12.52;35.36;99426.94;3620488;39;20046;-62
2021/04/04 11:49:35;;;;;;;19.58;9.02;;;;;;;12.63;34.79;99431.75;3611333;39;20050;-63
2021/04/04 11:52:47;;;;;;;16.38;6.95;;;;;;;12.66;34.72;99418.13;3621005;39;20050;-62
2021/04/04 11:55:16;;;;;;;13.25;6.32;;;;;;;12.63;34.59;99424.59;3619474;39;20047;-63
2021/04/04 11:57:45;;;;;;;12.82;6.70;;;;;;;12.66;33.84;99425.25;3619402;39;20362;-63